Greeley West High School, Colorado
Current Conditions -  °F | °C
As of 10:15 AM on Saturday 25 Oct 2014 (Local Time) from KGXY Reporting Station
Clear Clear  
Wind Chill: 59°   Ceiling: Unl
Heat Index: 59°   Visibility: 10mi
Dew Point: 36°   Wind: 5mph
Humidity: 42%   Direction: 220°SW
Pressure: 30.24"   Gusts: NA
Location:  40.41412°N, 104.7064°W
Report Text: KGXY 251615Z AUTO 22004KT 10SM CLR 15/02 A3024 RMK AO1
Loading
Personal Weather Stations






























Interactive Weather Map New forecast layout! Learn more

10-Day Weather Forecast

Advertisements
Track Severe Weather on mobile